Time;durP1;ratioP1;P1;durP2;ratioP2;P2;SDS_P1;SDS_P2;PMS_P1;PMS_P2;Temp;Humidity;BMP_temperature;BMP_pressure;BME280_temperature;BME280_humidity;BME280_pressure;Samples;Min_cycle;Max_cycle;Signal;HPM_P1;HPM_P2
2023/04/12 00:00:26;;;;;;;7.00;2.50;;;;;;;;;;5053350;28;20458;-75
2023/04/12 00:02:53;;;;;;;10.30;3.00;;;;;;;;;;5053475;28;20095;-75
2023/04/12 00:05:21;;;;;;;4.60;2.40;;;;;;;;;;5053402;28;20025;-76
2023/04/12 00:07:48;;;;;;;10.73;2.60;;;;;;;;;;5052331;28;20178;-75
2023/04/12 00:10:14;;;;;;;8.48;2.55;;;;;;;;;;5052683;28;20032;-74
2023/04/12 00:12:40;;;;;;;7.95;3.35;;;;;;;;;;5053340;28;20021;-74
2023/04/12 00:15:06;;;;;;;8.95;2.25;;;;;;;;;;5054834;28;20029;-75
2023/04/12 00:17:32;;;;;;;10.27;2.50;;;;;;;;;;5057005;28;20086;-75
2023/04/12 00:19:58;;;;;;;9.82;3.15;;;;;;;;;;5056779;28;20134;-75
2023/04/12 00:22:25;;;;;;;11.20;3.10;;;;;;;;;;5056944;28;20367;-75
2023/04/12 00:24:51;;;;;;;6.47;2.47;;;;;;;;;;5056727;28;20037;-75
2023/04/12 00:27:18;;;;;;;10.85;2.53;;;;;;;;;;5056997;28;20032;-75
2023/04/12 00:29:44;;;;;;;14.48;3.38;;;;;;;;;;5056667;28;20037;-75
2023/04/12 00:32:10;;;;;;;10.40;2.60;;;;;;;;;;5056687;28;20079;-75
2023/04/12 00:34:36;;;;;;;8.27;3.10;;;;;;;;;;5056530;28;20025;-75
2023/04/12 00:37:02;;;;;;;6.22;2.90;;;;;;;;;;5056573;28;20112;-75
2023/04/12 00:39:28;;;;;;;9.43;2.30;;;;;;;;;;5055997;28;20041;-75
2023/04/12 00:41:55;;;;;;;6.88;2.63;;;;;;;;;;5055974;28;20033;-75
2023/04/12 00:44:21;;;;;;;6.65;2.47;;;;;;;;;;5056340;28;20025;-75
2023/04/12 00:46:47;;;;;;;7.88;2.47;;;;;;;;;;5056351;28;20021;-75
2023/04/12 00:49:14;;;;;;;6.70;2.55;;;;;;;;;;5056388;28;20355;-74
2023/04/12 00:51:40;;;;;;;7.18;2.55;;;;;;;;;;5056035;28;20062;-74
2023/04/12 00:54:06;;;;;;;5.72;2.83;;;;;;;;;;5056170;28;20029;-75
2023/04/12 00:56:33;;;;;;;9.60;3.10;;;;;;;;;;5056241;28;20029;-75
2023/04/12 00:59:00;;;;;;;9.07;2.78;;;;;;;;;;5055393;28;20074;-75
2023/04/12 01:01:27;;;;;;;15.35;2.85;;;;;;;;;;5056232;28;20033;-75
2023/04/12 01:03:53;;;;;;;6.22;2.72;;;;;;;;;;5056515;28;20064;-74
2023/04/12 01:06:28;;;;;;;13.18;2.80;;;;;;;;;;5055395;28;20131;-74
2023/04/12 01:09:00;;;;;;;11.48;2.90;;;;;;;;;;5055757;28;20036;-75
2023/04/12 01:11:30;;;;;;;12.57;3.38;;;;;;;;;;5055951;28;20044;-74
2023/04/12 01:14:16;;;;;;;8.13;2.55;;;;;;;;;;5055012;28;20025;-74
2023/04/12 01:16:49;;;;;;;14.80;3.97;;;;;;;;;;5055248;28;20115;-75
2023/04/12 01:19:35;;;;;;;8.98;3.00;;;;;;;;;;5055939;28;20021;-74
2023/04/12 01:22:10;;;;;;;9.40;2.50;;;;;;;;;;5055219;28;20039;-75
2023/04/12 01:24:45;;;;;;;6.88;2.85;;;;;;;;;;5055660;28;20064;-75
2023/04/12 01:27:17;;;;;;;12.10;2.75;;;;;;;;;;5055201;28;20028;-74
2023/04/12 01:29:48;;;;;;;11.68;2.65;;;;;;;;;;5055710;28;20379;-74
2023/04/12 01:32:14;;;;;;;11.10;3.05;;;;;;;;;;5055668;28;20028;-75
2023/04/12 01:34:41;;;;;;;10.25;3.00;;;;;;;;;;5055452;28;20122;-75
2023/04/12 01:37:07;;;;;;;10.25;3.22;;;;;;;;;;5055471;28;20382;-75
2023/04/12 01:39:33;;;;;;;9.23;2.80;;;;;;;;;;5055298;28;20033;-73
2023/04/12 01:41:59;;;;;;;11.63;2.80;;;;;;;;;;5055345;28;20382;-73
2023/04/12 01:44:25;;;;;;;9.65;2.67;;;;;;;;;;5055297;28;20025;-73
2023/04/12 01:46:51;;;;;;;11.93;3.05;;;;;;;;;;5055248;28;20037;-73
2023/04/12 01:49:18;;;;;;;9.43;3.33;;;;;;;;;;5055276;28;20079;-73
2023/04/12 01:52:04;;;;;;;14.57;3.75;;;;;;;;;;5055060;28;20494;-74
2023/04/12 01:54:32;;;;;;;10.55;2.60;;;;;;;;;;5055060;28;20509;-73
2023/04/12 01:57:01;;;;;;;11.00;3.40;;;;;;;;;;5054614;28;20040;-74
2023/04/12 01:59:37;;;;;;;9.93;3.05;;;;;;;;;;5054992;28;20025;-74
2023/04/12 02:02:03;;;;;;;12.52;3.05;;;;;;;;;;5053943;28;20032;-74
2023/04/12 02:04:30;;;;;;;12.05;3.05;;;;;;;;;;5054929;28;20044;-73
2023/04/12 02:06:56;;;;;;;12.05;2.67;;;;;;;;;;5054495;28;20063;-74
2023/04/12 02:09:22;;;;;;;9.70;3.55;;;;;;;;;;5054860;28;20116;-73
2023/04/12 02:11:49;;;;;;;9.32;2.90;;;;;;;;;;5054864;28;20032;-74
2023/04/12 02:14:16;;;;;;;6.80;2.45;;;;;;;;;;5055010;28;20379;-73
2023/04/12 02:16:43;;;;;;;11.43;2.70;;;;;;;;;;5054865;28;20494;-74
2023/04/12 02:19:09;;;;;;;12.27;2.45;;;;;;;;;;5054560;28;20481;-74
2023/04/12 02:21:43;;;;;;;8.45;2.45;;;;;;;;;;5055091;28;20375;-74
2023/04/12 02:24:09;;;;;;;8.77;2.58;;;;;;;;;;5054556;28;20498;-74
2023/04/12 02:26:36;;;;;;;12.43;2.97;;;;;;;;;;5054628;28;20032;-74
2023/04/12 02:29:02;;;;;;;9.80;1.90;;;;;;;;;;5054184;28;20128;-74
2023/04/12 02:31:29;;;;;;;6.57;2.20;;;;;;;;;;5054028;28;20025;-75
2023/04/12 02:33:55;;;;;;;7.47;2.15;;;;;;;;;;5054312;28;20021;-75
2023/04/12 02:36:21;;;;;;;10.10;2.63;;;;;;;;;;5054395;28;20374;-74
2023/04/12 02:38:49;;;;;;;5.35;1.80;;;;;;;;;;5053259;28;20482;-74
2023/04/12 02:41:19;;;;;;;9.18;2.13;;;;;;;;;;5054244;28;20478;-74
2023/04/12 02:43:45;;;;;;;8.82;1.85;;;;;;;;;;5054242;28;20036;-74
2023/04/12 02:46:15;;;;;;;7.45;1.80;;;;;;;;;;5054184;28;20380;-74
2023/04/12 02:48:41;;;;;;;6.65;1.83;;;;;;;;;;5053894;28;20394;-74
2023/04/12 02:51:07;;;;;;;8.63;2.13;;;;;;;;;;5054193;28;20021;-74
2023/04/12 02:53:33;;;;;;;9.48;2.13;;;;;;;;;;5054125;28;20124;-74
2023/04/12 02:56:00;;;;;;;7.65;1.83;;;;;;;;;;5054153;28;20068;-74
2023/04/12 02:58:26;;;;;;;7.82;1.80;;;;;;;;;;5054177;28;20420;-73
2023/04/12 03:00:52;;;;;;;7.03;2.05;;;;;;;;;;5053907;28;20040;-74
2023/04/12 03:03:18;;;;;;;6.95;2.00;;;;;;;;;;5054017;28;20470;-75
2023/04/12 03:05:46;;;;;;;10.15;2.40;;;;;;;;;;5054015;28;20048;-74
2023/04/12 03:08:12;;;;;;;9.15;2.83;;;;;;;;;;5053153;28;20464;-74
2023/04/12 03:10:38;;;;;;;6.43;2.03;;;;;;;;;;5053994;28;20029;-74
2023/04/12 03:13:04;;;;;;;7.70;2.00;;;;;;;;;;5053703;28;20094;-74
2023/04/12 03:15:31;;;;;;;4.63;1.83;;;;;;;;;;5053971;28;20035;-73
2023/04/12 03:17:56;;;;;;;9.32;2.10;;;;;;;;;;5053675;28;20032;-74
2023/04/12 03:20:24;;;;;;;9.20;2.10;;;;;;;;;;5053810;28;20025;-74
2023/04/12 03:22:50;;;;;;;7.15;2.05;;;;;;;;;;5053566;28;20079;-74
2023/04/12 03:25:17;;;;;;;6.75;1.92;;;;;;;;;;5053779;28;20029;-74
2023/04/12 03:27:43;;;;;;;7.10;2.15;;;;;;;;;;5053684;28;20052;-74
2023/04/12 03:30:11;;;;;;;9.38;2.15;;;;;;;;;;5053855;28;20025;-75
2023/04/12 03:32:37;;;;;;;6.30;1.88;;;;;;;;;;5053727;28;20025;-73
2023/04/12 03:35:03;;;;;;;5.50;1.88;;;;;;;;;;5053818;28;20033;-74
2023/04/12 03:37:29;;;;;;;9.70;2.80;;;;;;;;;;5053416;28;20039;-74
2023/04/12 03:39:55;;;;;;;4.20;2.03;;;;;;;;;;5053784;28;20052;-74
2023/04/12 03:42:21;;;;;;;8.30;2.30;;;;;;;;;;5053535;28;20037;-74
2023/04/12 03:44:47;;;;;;;8.25;2.55;;;;;;;;;;5053545;28;20115;-74
2023/04/12 03:47:13;;;;;;;4.55;1.80;;;;;;;;;;5053096;28;20067;-74
2023/04/12 03:49:39;;;;;;;6.65;2.50;;;;;;;;;;5054558;28;20033;-74
2023/04/12 03:52:06;;;;;;;9.98;3.08;;;;;;;;;;5057482;28;20060;-74
2023/04/12 03:54:32;;;;;;;5.03;2.05;;;;;;;;;;5056389;28;20028;-74
2023/04/12 03:56:58;;;;;;;5.80;2.17;;;;;;;;;;5057270;28;20524;-74
2023/04/12 03:59:24;;;;;;;7.00;2.45;;;;;;;;;;5057313;28;20029;-74
2023/04/12 04:01:50;;;;;;;14.00;2.72;;;;;;;;;;5057104;28;20027;-75
2023/04/12 04:04:16;;;;;;;6.70;1.90;;;;;;;;;;5057248;28;20025;-74
2023/04/12 04:06:42;;;;;;;6.90;2.38;;;;;;;;;;5056816;28;20045;-72
2023/04/12 04:09:08;;;;;;;12.75;3.00;;;;;;;;;;5057236;28;20431;-73
2023/04/12 04:11:36;;;;;;;7.15;2.10;;;;;;;;;;5057323;28;20033;-73
2023/04/12 04:14:02;;;;;;;6.05;2.40;;;;;;;;;;5056970;28;20029;-74
2023/04/12 04:16:29;;;;;;;6.45;2.35;;;;;;;;;;5056426;28;20052;-73
2023/04/12 04:18:55;;;;;;;9.95;2.60;;;;;;;;;;5056813;28;20032;-73
2023/04/12 04:21:22;;;;;;;8.93;2.30;;;;;;;;;;5056803;28;20374;-74
2023/04/12 04:23:50;;;;;;;8.20;2.28;;;;;;;;;;5056272;28;20032;-74
2023/04/12 04:26:17;;;;;;;7.40;2.45;;;;;;;;;;5056602;28;20073;-73
2023/04/12 04:28:44;;;;;;;5.45;2.22;;;;;;;;;;5056396;28;20037;-74
2023/04/12 04:31:10;;;;;;;5.60;1.95;;;;;;;;;;5056592;28;20344;-74
2023/04/12 04:33:37;;;;;;;8.27;2.78;;;;;;;;;;5056683;28;20532;-74
2023/04/12 04:36:04;;;;;;;5.75;2.25;;;;;;;;;;5056487;28;20036;-74
2023/04/12 04:38:31;;;;;;;4.97;2.33;;;;;;;;;;5056658;28;20497;-74
2023/04/12 04:41:01;;;;;;;9.70;2.47;;;;;;;;;;5056379;28;20029;-74
2023/04/12 04:43:29;;;;;;;7.20;2.38;;;;;;;;;;5056358;28;20558;-73
2023/04/12 04:45:55;;;;;;;7.57;2.45;;;;;;;;;;5056297;28;20025;-74
2023/04/12 04:48:21;;;;;;;5.45;2.00;;;;;;;;;;5055846;28;20025;-77
2023/04/12 04:50:47;;;;;;;5.00;2.30;;;;;;;;;;5056311;28;20029;-74
2023/04/12 04:53:13;;;;;;;6.82;2.38;;;;;;;;;;5056331;28;20447;-74
2023/04/12 04:55:40;;;;;;;4.63;2.15;;;;;;;;;;5056051;28;20055;-74
2023/04/12 04:58:06;;;;;;;4.85;1.80;;;;;;;;;;5055609;28;20028;-74
2023/04/12 05:00:34;;;;;;;7.20;1.98;;;;;;;;;;5055753;28;20044;-74
2023/04/12 05:03:01;;;;;;;4.10;1.80;;;;;;;;;;5055372;28;20025;-74
2023/04/12 05:05:27;;;;;;;4.75;2.08;;;;;;;;;;5056016;28;20087;-73
2023/04/12 05:07:54;;;;;;;3.67;1.73;;;;;;;;;;5055120;28;20491;-74
2023/04/12 05:10:20;;;;;;;3.17;1.50;;;;;;;;;;5055907;28;20479;-74
2023/04/12 05:12:46;;;;;;;4.15;1.80;;;;;;;;;;5055832;28;20083;-75
2023/04/12 05:15:12;;;;;;;3.92;1.92;;;;;;;;;;5056176;28;20025;-74
2023/04/12 05:17:38;;;;;;;5.57;1.63;;;;;;;;;;5056040;28;20485;-74
2023/04/12 05:20:06;;;;;;;5.13;1.80;;;;;;;;;;5055522;28;20051;-74
2023/04/12 05:22:32;;;;;;;4.60;1.90;;;;;;;;;;5055450;28;20489;-73
2023/04/12 05:24:58;;;;;;;4.13;1.77;;;;;;;;;;5055467;28;20028;-73
2023/04/12 05:27:26;;;;;;;4.32;1.85;;;;;;;;;;5055503;28;20037;-74
2023/04/12 05:29:52;;;;;;;4.10;2.08;;;;;;;;;;5055498;28;20024;-74
2023/04/12 05:32:18;;;;;;;6.28;1.73;;;;;;;;;;5055368;28;20060;-74
2023/04/12 05:34:44;;;;;;;4.78;1.70;;;;;;;;;;5055321;28;20028;-74
2023/04/12 05:37:10;;;;;;;6.80;1.30;;;;;;;;;;5054564;28;20029;-75
2023/04/12 05:39:36;;;;;;;7.55;2.10;;;;;;;;;;5054925;28;20032;-74
2023/04/12 05:42:02;;;;;;;1.92;1.42;;;;;;;;;;5055261;28;20025;-73
2023/04/12 05:44:28;;;;;;;2.45;1.70;;;;;;;;;;5055295;28;20036;-74
2023/04/12 05:46:54;;;;;;;3.00;1.75;;;;;;;;;;5054767;28;20028;-74
2023/04/12 05:49:20;;;;;;;5.68;1.90;;;;;;;;;;5054836;28;20036;-74
2023/04/12 05:51:46;;;;;;;4.45;1.65;;;;;;;;;;5055111;28;20029;-74
2023/04/12 05:54:12;;;;;;;5.82;2.00;;;;;;;;;;5055061;28;20017;-75
2023/04/12 05:56:38;;;;;;;2.60;1.60;;;;;;;;;;5048236;28;20386;-71
2023/04/12 05:59:04;;;;;;;2.95;1.80;;;;;;;;;;5053121;28;20126;-73
2023/04/12 06:01:33;;;;;;;9.32;2.05;;;;;;;;;;5045902;28;20425;-72
2023/04/12 06:03:58;;;;;;;3.92;1.42;;;;;;;;;;5053953;28;20058;-74
2023/04/12 06:06:28;;;;;;;3.30;1.60;;;;;;;;;;5053845;28;20076;-73
2023/04/12 06:08:54;;;;;;;4.68;1.70;;;;;;;;;;5054351;28;20087;-73
2023/04/12 06:11:20;;;;;;;2.70;1.30;;;;;;;;;;5054726;28;20028;-74
2023/04/12 06:13:46;;;;;;;2.88;1.48;;;;;;;;;;5053138;28;20032;-75
2023/04/12 06:16:12;;;;;;;2.92;1.60;;;;;;;;;;5054465;28;20040;-74
2023/04/12 06:18:38;;;;;;;2.75;1.30;;;;;;;;;;5054831;28;20033;-75
2023/04/12 06:21:04;;;;;;;2.28;1.50;;;;;;;;;;5051245;28;20111;-75
2023/04/12 06:23:30;;;;;;;4.75;1.38;;;;;;;;;;5054491;28;20542;-74
2023/04/12 06:25:56;;;;;;;4.45;1.60;;;;;;;;;;5054201;28;20056;-73
2023/04/12 06:28:22;;;;;;;2.08;1.20;;;;;;;;;;5052802;28;20075;-71
2023/04/12 06:30:48;;;;;;;3.90;1.65;;;;;;;;;;5045541;28;20032;-74
2023/04/12 06:33:14;;;;;;;2.70;1.30;;;;;;;;;;5053609;28;20032;-73
2023/04/12 06:35:40;;;;;;;4.25;1.60;;;;;;;;;;5053485;28;20024;-71
2023/04/12 06:38:06;;;;;;;3.85;1.45;;;;;;;;;;5053646;28;20029;-72
2023/04/12 06:40:32;;;;;;;2.22;1.50;;;;;;;;;;5053485;28;20441;-71
2023/04/12 06:42:58;;;;;;;1.70;1.33;;;;;;;;;;5053293;28;20037;-71
2023/04/12 06:45:24;;;;;;;2.88;1.55;;;;;;;;;;5055774;28;20044;-72
2023/04/12 06:47:50;;;;;;;2.75;1.80;;;;;;;;;;5053405;28;20033;-72
2023/04/12 06:50:17;;;;;;;2.20;1.35;;;;;;;;;;5053172;28;20024;-71
2023/04/12 06:52:43;;;;;;;4.78;1.30;;;;;;;;;;5053203;28;20032;-72
2023/04/12 06:55:09;;;;;;;1.85;1.25;;;;;;;;;;5053951;28;20033;-72
2023/04/12 06:57:35;;;;;;;4.00;1.30;;;;;;;;;;5052774;28;20033;-72
2023/04/12 07:00:02;;;;;;;3.15;1.10;;;;;;;;;;5053063;28;20043;-71
2023/04/12 07:02:28;;;;;;;2.15;1.10;;;;;;;;;;5052497;28;20037;-71
2023/04/12 07:04:54;;;;;;;2.63;1.20;;;;;;;;;;5053824;28;20039;-74
2023/04/12 07:07:20;;;;;;;1.65;1.30;;;;;;;;;;5053084;28;20047;-73
2023/04/12 07:09:46;;;;;;;1.70;1.20;;;;;;;;;;5052902;28;20029;-72
2023/04/12 07:12:12;;;;;;;2.42;1.10;;;;;;;;;;5052403;28;20037;-72
2023/04/12 07:14:38;;;;;;;2.80;1.40;;;;;;;;;;5053093;28;20067;-71
2023/04/12 07:17:05;;;;;;;2.55;1.10;;;;;;;;;;5052966;28;20478;-72
2023/04/12 07:19:31;;;;;;;1.55;1.08;;;;;;;;;;5053693;28;20489;-71
2023/04/12 07:21:57;;;;;;;3.90;1.20;;;;;;;;;;5053026;28;20083;-72
2023/04/12 07:24:23;;;;;;;1.42;1.10;;;;;;;;;;5056138;28;20025;-71
2023/04/12 07:26:49;;;;;;;3.53;1.13;;;;;;;;;;5057013;28;20036;-69
2023/04/12 07:29:16;;;;;;;1.90;1.13;;;;;;;;;;5057528;28;20058;-70
2023/04/12 07:31:42;;;;;;;2.80;1.15;;;;;;;;;;5056446;28;20033;-70
2023/04/12 07:34:08;;;;;;;1.63;1.08;;;;;;;;;;5056945;28;20075;-70
2023/04/12 07:36:34;;;;;;;2.55;0.88;;;;;;;;;;5056932;28;20036;-71
2023/04/12 07:39:00;;;;;;;1.65;0.98;;;;;;;;;;5057577;28;20045;-72
2023/04/12 07:41:26;;;;;;;1.63;1.05;;;;;;;;;;5056273;28;20033;-70
2023/04/12 07:43:52;;;;;;;2.25;1.00;;;;;;;;;;5057437;28;20039;-72
2023/04/12 07:46:17;;;;;;;4.32;1.40;;;;;;;;;;5056380;28;20028;-70
2023/04/12 07:48:43;;;;;;;2.40;1.20;;;;;;;;;;5056419;28;20458;-70
2023/04/12 07:51:09;;;;;;;3.42;1.15;;;;;;;;;;5056317;28;20090;-69
2023/04/12 07:53:35;;;;;;;1.23;1.00;;;;;;;;;;5054414;28;20495;-70
2023/04/12 07:56:03;;;;;;;0.88;0.80;;;;;;;;;;5056337;28;20032;-70
2023/04/12 07:58:30;;;;;;;2.15;1.00;;;;;;;;;;5056592;28;20036;-70
2023/04/12 08:00:56;;;;;;;1.20;1.10;;;;;;;;;;5056254;28;20043;-71
2023/04/12 08:03:23;;;;;;;1.73;0.90;;;;;;;;;;5057044;28;20037;-69
2023/04/12 08:05:52;;;;;;;1.88;1.15;;;;;;;;;;5056086;28;20035;-70
2023/04/12 08:08:19;;;;;;;1.80;0.85;;;;;;;;;;5056124;28;20045;-69
2023/04/12 08:10:45;;;;;;;1.20;0.85;;;;;;;;;;5055884;28;20112;-69
2023/04/12 08:13:11;;;;;;;0.85;0.80;;;;;;;;;;5056317;28;20481;-69
2023/04/12 08:15:37;;;;;;;1.02;0.98;;;;;;;;;;5055820;28;20035;-69
2023/04/12 08:18:03;;;;;;;1.98;0.95;;;;;;;;;;5054872;28;20033;-70
2023/04/12 08:20:29;;;;;;;1.58;0.93;;;;;;;;;;5056537;28;20033;-70
2023/04/12 08:22:55;;;;;;;1.75;0.80;;;;;;;;;;5056021;28;20394;-69
2023/04/12 08:25:21;;;;;;;4.82;1.00;;;;;;;;;;5056398;28;20032;-69
2023/04/12 08:27:48;;;;;;;0.80;0.80;;;;;;;;;;5056122;28;20032;-69
2023/04/12 08:30:14;;;;;;;1.42;0.63;;;;;;;;;;5056327;28;20466;-69
2023/04/12 08:32:40;;;;;;;1.50;0.73;;;;;;;;;;5056174;28;20056;-69
2023/04/12 08:35:06;;;;;;;0.80;0.70;;;;;;;;;;5059111;28;20382;-72
2023/04/12 08:37:33;;;;;;;4.50;1.65;;;;;;;;;;5047253;28;20116;-69
2023/04/12 08:39:59;;;;;;;1.33;0.80;;;;;;;;;;5055738;28;20029;-70
2023/04/12 08:42:26;;;;;;;1.27;0.70;;;;;;;;;;5054358;28;20029;-70
2023/04/12 08:44:52;;;;;;;1.98;0.70;;;;;;;;;;5055244;28;20032;-73
2023/04/12 08:47:19;;;;;;;0.82;0.73;;;;;;;;;;5055410;28;20033;-73
2023/04/12 08:49:45;;;;;;;0.70;0.68;;;;;;;;;;5056033;28;20079;-72
2023/04/12 08:52:11;;;;;;;1.38;0.90;;;;;;;;;;5055632;28;20429;-71
2023/04/12 08:54:37;;;;;;;1.08;0.80;;;;;;;;;;5055530;28;20033;-71
2023/04/12 08:57:05;;;;;;;1.10;0.70;;;;;;;;;;5055296;28;20538;-71
2023/04/12 08:59:31;;;;;;;1.17;0.80;;;;;;;;;;5055077;28;20363;-71
2023/04/12 09:01:58;;;;;;;1.17;0.98;;;;;;;;;;5054467;28;20364;-70
2023/04/12 09:04:25;;;;;;;1.10;0.90;;;;;;;;;;5054609;28;20037;-70
2023/04/12 09:06:52;;;;;;;3.03;1.10;;;;;;;;;;5054916;28;20083;-71
2023/04/12 09:09:18;;;;;;;2.90;1.00;;;;;;;;;;5054891;28;20482;-71
2023/04/12 09:11:44;;;;;;;4.63;1.20;;;;;;;;;;5055739;28;20086;-72
2023/04/12 09:14:21;;;;;;;5.05;1.40;;;;;;;;;;5056027;28;20119;-72
2023/04/12 09:16:47;;;;;;;4.40;1.15;;;;;;;;;;5054629;28;20045;-72
2023/04/12 09:19:13;;;;;;;1.92;1.00;;;;;;;;;;5055658;28;20394;-70
2023/04/12 09:21:52;;;;;;;2.30;1.00;;;;;;;;;;5055621;28;20033;-71
2023/04/12 09:24:18;;;;;;;2.88;1.00;;;;;;;;;;5055045;28;20035;-71
2023/04/12 09:26:44;;;;;;;11.48;1.55;;;;;;;;;;5054842;28;20028;-71
2023/04/12 09:29:25;;;;;;;1.15;0.80;;;;;;;;;;5054564;28;20044;-72
2023/04/12 09:32:07;;;;;;;1.38;0.75;;;;;;;;;;5054652;28;20402;-72
2023/04/12 09:34:34;;;;;;;1.73;0.90;;;;;;;;;;5054265;28;20028;-71
2023/04/12 09:37:16;;;;;;;1.20;0.90;;;;;;;;;;5055158;28;20025;-71
2023/04/12 09:39:42;;;;;;;1.98;0.95;;;;;;;;;;5054713;28;20041;-72
2023/04/12 09:42:10;;;;;;;0.93;0.60;;;;;;;;;;5053817;28;20028;-70
2023/04/12 09:44:36;;;;;;;0.63;0.63;;;;;;;;;;5054640;28;20037;-71
2023/04/12 09:47:04;;;;;;;0.80;0.80;;;;;;;;;;5053741;28;20417;-71
2023/04/12 09:49:38;;;;;;;1.55;0.88;;;;;;;;;;5055016;28;20394;-71
2023/04/12 09:52:05;;;;;;;1.10;1.00;;;;;;;;;;5055060;28;20021;-72
2023/04/12 09:54:33;;;;;;;0.93;0.70;;;;;;;;;;5054789;28;20025;-72
2023/04/12 09:57:00;;;;;;;0.80;0.80;;;;;;;;;;5055022;28;20424;-71
2023/04/12 09:59:28;;;;;;;2.08;1.00;;;;;;;;;;5052578;28;20021;-70
2023/04/12 10:01:54;;;;;;;1.80;0.88;;;;;;;;;;5053735;28;20122;-71
2023/04/12 10:04:21;;;;;;;1.30;1.20;;;;;;;;;;5054235;28;20386;-71
2023/04/12 10:06:47;;;;;;;1.35;0.98;;;;;;;;;;5054323;28;20047;-72
2023/04/12 10:09:13;;;;;;;1.30;1.20;;;;;;;;;;5054101;28;20117;-71
2023/04/12 10:11:40;;;;;;;2.42;1.23;;;;;;;;;;5053776;28;20025;-72
2023/04/12 10:14:06;;;;;;;2.38;0.77;;;;;;;;;;5053377;28;20390;-72
2023/04/12 10:16:34;;;;;;;0.80;0.75;;;;;;;;;;5053275;28;20017;-70
2023/04/12 10:19:01;;;;;;;1.02;0.75;;;;;;;;;;5053629;28;20040;-72
2023/04/12 10:21:28;;;;;;;1.23;0.98;;;;;;;;;;5053441;28;20037;-72
2023/04/12 10:23:54;;;;;;;1.42;1.25;;;;;;;;;;5053251;28;20025;-71
2023/04/12 10:26:20;;;;;;;2.53;1.40;;;;;;;;;;5054372;28;20470;-72
2023/04/12 10:29:06;;;;;;;1.50;1.15;;;;;;;;;;5053411;28;20116;-72
2023/04/12 10:31:32;;;;;;;1.48;1.25;;;;;;;;;;5053489;28;20494;-72
2023/04/12 10:34:01;;;;;;;3.00;1.20;;;;;;;;;;5054545;28;20451;-72
2023/04/12 10:36:47;;;;;;;0.88;0.82;;;;;;;;;;5054601;28;20032;-72
2023/04/12 10:39:14;;;;;;;2.03;0.75;;;;;;;;;;5047150;28;20033;-71
2023/04/12 10:42:00;;;;;;;0.82;0.80;;;;;;;;;;5052791;28;20733;-71
2023/04/12 10:44:26;;;;;;;1.48;1.10;;;;;;;;;;5053100;28;20036;-71
2023/04/12 10:46:52;;;;;;;0.77;0.75;;;;;;;;;;5053210;28;20085;-71
2023/04/12 10:49:18;;;;;;;1.38;1.00;;;;;;;;;;5052839;28;20052;-71
2023/04/12 10:52:04;;;;;;;1.00;0.90;;;;;;;;;;5053659;28;20512;-72
2023/04/12 10:54:34;;;;;;;1.98;0.90;;;;;;;;;;5053367;28;20482;-72
2023/04/12 10:57:00;;;;;;;1.92;0.77;;;;;;;;;;5051187;28;20474;-72
2023/04/12 10:59:26;;;;;;;3.25;0.95;;;;;;;;;;5053067;28;20124;-71
2023/04/12 11:02:07;;;;;;;2.13;0.73;;;;;;;;;;5053010;28;20029;-72
2023/04/12 11:04:34;;;;;;;0.95;0.80;;;;;;;;;;5052719;28;20036;-70
2023/04/12 11:07:06;;;;;;;0.75;0.70;;;;;;;;;;5052621;28;20037;-71
2023/04/12 11:09:35;;;;;;;1.58;0.80;;;;;;;;;;5053328;28;20041;-72
2023/04/12 11:14:44;;;;;;;0.70;0.70;;;;;;;;;;5111559;27;20866;-71
2023/04/12 11:19:55;;;;;;;0.85;0.75;;;;;;;;;;5111727;27;20844;-72
2023/04/12 11:22:21;;;;;;;1.25;0.75;;;;;;;;;;5112157;28;20024;-71
2023/04/12 11:24:50;;;;;;;3.88;0.93;;;;;;;;;;5111459;27;20030;-72
2023/04/12 11:27:16;;;;;;;1.40;0.82;;;;;;;;;;5111634;28;20031;-73
2023/04/12 11:29:42;;;;;;;3.33;1.38;;;;;;;;;;5111935;28;20461;-74
2023/04/12 11:32:14;;;;;;;2.20;0.70;;;;;;;;;;5111655;28;20447;-74
2023/04/12 11:34:41;;;;;;;1.38;1.13;;;;;;;;;;5111123;28;20424;-74
2023/04/12 11:37:07;;;;;;;2.92;1.70;;;;;;;;;;5111428;28;20020;-74
2023/04/12 11:39:33;;;;;;;25.65;16.50;;;;;;;;;;5111212;28;20470;-74
2023/04/12 11:42:02;;;;;;;8.60;5.47;;;;;;;;;;5111467;28;20032;-74
2023/04/12 11:44:28;;;;;;;2.05;1.55;;;;;;;;;;5110319;28;20020;-74
2023/04/12 11:46:54;;;;;;;1.23;1.10;;;;;;;;;;5111123;28;20034;-74
2023/04/12 11:49:21;;;;;;;1.58;0.73;;;;;;;;;;5110049;28;20039;-73
2023/04/12 11:51:46;;;;;;;1.45;0.90;;;;;;;;;;5108907;27;20040;-73
2023/04/12 11:54:13;;;;;;;1.27;1.10;;;;;;;;;;5106557;28;20439;-73
2023/04/12 11:56:39;;;;;;;1.27;1.10;;;;;;;;;;5108599;28;20370;-74
2023/04/12 11:59:06;;;;;;;1.60;1.30;;;;;;;;;;5110333;28;20102;-73
2023/04/12 12:01:33;;;;;;;1.25;1.15;;;;;;;;;;5106450;28;20546;-74
2023/04/12 12:04:00;;;;;;;1.85;1.67;;;;;;;;;;5107726;27;20042;-76
2023/04/12 12:06:26;;;;;;;1.63;1.52;;;;;;;;;;5102723;28;20031;-75
2023/04/12 12:08:52;;;;;;;1.70;1.60;;;;;;;;;;5108684;28;20472;-75
2023/04/12 12:11:21;;;;;;;5.85;2.33;;;;;;;;;;5110035;28;20101;-75
2023/04/12 12:13:48;;;;;;;3.65;2.55;;;;;;;;;;5110073;27;20492;-75
2023/04/12 12:16:14;;;;;;;4.30;3.83;;;;;;;;;;5109927;28;20031;-75
2023/04/12 12:18:41;;;;;;;5.55;4.72;;;;;;;;;;5109677;28;20529;-75
2023/04/12 12:21:08;;;;;;;5.40;4.70;;;;;;;;;;5110172;28;20032;-75
2023/04/12 12:23:35;;;;;;;8.48;5.05;;;;;;;;;;5110727;28;20484;-75
2023/04/12 12:26:02;;;;;;;8.63;6.57;;;;;;;;;;5110919;28;20519;-76
2023/04/12 12:28:28;;;;;;;8.55;5.95;;;;;;;;;;5110632;28;20027;-76
2023/04/12 12:30:56;;;;;;;6.32;5.63;;;;;;;;;;5098612;28;20501;-76
2023/04/12 12:33:23;;;;;;;6.72;5.35;;;;;;;;;;5097014;28;20389;-78
2023/04/12 12:35:57;;;;;;;9.45;6.97;;;;;;;;;;5099325;28;20040;-76
2023/04/12 12:38:23;;;;;;;7.35;5.85;;;;;;;;;;5115876;28;20070;-74
2023/04/12 12:40:49;;;;;;;5.93;5.43;;;;;;;;;;5116916;28;20039;-75
2023/04/12 12:43:19;;;;;;;5.05;4.55;;;;;;;;;;5117010;28;20031;-74
2023/04/12 12:45:45;;;;;;;5.35;4.85;;;;;;;;;;5116840;28;20457;-75
2023/04/12 12:48:12;;;;;;;5.60;4.30;;;;;;;;;;5116239;28;20062;-72
2023/04/12 12:50:38;;;;;;;7.38;5.20;;;;;;;;;;5095550;28;20028;-73
2023/04/12 12:53:05;;;;;;;8.15;5.40;;;;;;;;;;5094766;28;20028;-74
2023/04/12 12:55:31;;;;;;;9.00;6.80;;;;;;;;;;5095217;28;20055;-74
2023/04/12 12:57:58;;;;;;;10.13;8.20;;;;;;;;;;5095407;28;20097;-74
2023/04/12 13:00:25;;;;;;;6.00;5.40;;;;;;;;;;5094724;28;20032;-73
2023/04/12 13:02:51;;;;;;;5.55;4.72;;;;;;;;;;5095963;28;20072;-76
2023/04/12 13:05:18;;;;;;;4.47;3.70;;;;;;;;;;5094950;28;20028;-74
2023/04/12 13:07:44;;;;;;;6.82;3.70;;;;;;;;;;5114965;28;20034;-74
2023/04/12 13:10:10;;;;;;;4.20;3.80;;;;;;;;;;5103649;28;20036;-72
2023/04/12 13:12:36;;;;;;;4.60;4.03;;;;;;;;;;5094850;28;20094;-75
2023/04/12 13:15:03;;;;;;;4.30;3.90;;;;;;;;;;5095288;28;20378;-74
2023/04/12 13:17:29;;;;;;;4.90;3.80;;;;;;;;;;5095835;28;20083;-73
2023/04/12 13:19:55;;;;;;;5.40;3.75;;;;;;;;;;5095338;28;20032;-75
2023/04/12 13:22:21;;;;;;;3.42;2.70;;;;;;;;;;5095902;28;20185;-75
2023/04/12 13:24:48;;;;;;;3.38;2.10;;;;;;;;;;5095556;28;20482;-74
2023/04/12 13:27:14;;;;;;;2.17;2.00;;;;;;;;;;5096179;28;20030;-76
2023/04/12 13:29:40;;;;;;;3.13;1.50;;;;;;;;;;5095893;28;20024;-75
2023/04/12 13:32:06;;;;;;;2.13;1.20;;;;;;;;;;5095196;28;20413;-73
2023/04/12 13:34:32;;;;;;;1.48;0.90;;;;;;;;;;5095687;28;20562;-72
2023/04/12 13:36:58;;;;;;;2.47;1.30;;;;;;;;;;5095935;28;20027;-74
2023/04/12 13:39:24;;;;;;;2.60;1.20;;;;;;;;;;5095505;28;20110;-73
2023/04/12 13:41:50;;;;;;;1.48;1.00;;;;;;;;;;5094274;28;20031;-74
2023/04/12 13:44:16;;;;;;;3.20;1.33;;;;;;;;;;5095551;28;20447;-74
2023/04/12 13:46:42;;;;;;;2.35;1.15;;;;;;;;;;5095258;28;20043;-74
2023/04/12 13:49:08;;;;;;;3.78;1.60;;;;;;;;;;5094629;28;20020;-75
2023/04/12 13:51:34;;;;;;;4.30;1.40;;;;;;;;;;5094507;28;20475;-74
2023/04/12 13:54:00;;;;;;;2.88;1.00;;;;;;;;;;5095838;28;20115;-74
2023/04/12 13:56:26;;;;;;;4.93;1.50;;;;;;;;;;5093805;28;20020;-73
2023/04/12 13:58:52;;;;;;;6.00;1.90;;;;;;;;;;5094695;28;20410;-74
2023/04/12 14:01:21;;;;;;;6.20;1.50;;;;;;;;;;5095823;28;20076;-74
2023/04/12 14:03:47;;;;;;;4.82;1.30;;;;;;;;;;5094639;28;20461;-73
2023/04/12 14:06:13;;;;;;;2.90;1.33;;;;;;;;;;5094553;28;20031;-73
2023/04/12 14:08:39;;;;;;;9.30;1.98;;;;;;;;;;5094076;28;20027;-73
2023/04/12 14:11:06;;;;;;;6.22;1.60;;;;;;;;;;5094197;28;20477;-71
2023/04/12 14:13:32;;;;;;;2.30;1.17;;;;;;;;;;5094067;28;20027;-73
2023/04/12 14:15:58;;;;;;;4.97;1.67;;;;;;;;;;5093766;28;20470;-73
2023/04/12 14:18:24;;;;;;;4.32;2.10;;;;;;;;;;5094224;28;20409;-75
2023/04/12 14:20:51;;;;;;;6.00;2.30;;;;;;;;;;5093823;28;20032;-71
2023/04/12 14:23:17;;;;;;;5.70;2.05;;;;;;;;;;5093654;28;20371;-71
2023/04/12 14:25:43;;;;;;;3.45;2.17;;;;;;;;;;5093461;28;20020;-74
2023/04/12 14:28:09;;;;;;;5.13;2.47;;;;;;;;;;5094912;28;20038;-74
2023/04/12 14:30:35;;;;;;;6.43;2.35;;;;;;;;;;5094026;28;20036;-74
2023/04/12 14:33:01;;;;;;;8.55;2.70;;;;;;;;;;5094630;28;20081;-73
2023/04/12 14:35:27;;;;;;;6.78;3.28;;;;;;;;;;5094080;28;20039;-73
2023/04/12 14:37:53;;;;;;;5.85;3.42;;;;;;;;;;5093570;28;20162;-73
2023/04/12 14:40:19;;;;;;;6.85;3.10;;;;;;;;;;5093907;28;20024;-74
2023/04/12 14:42:45;;;;;;;6.43;2.95;;;;;;;;;;5093771;28;20054;-74
2023/04/12 14:45:11;;;;;;;6.63;3.33;;;;;;;;;;5094513;28;20051;-73